createdAt,value
2018-10-06T00:00:08.735Z,12.95
2018-10-06T00:01:08.874Z,12.87
2018-10-06T00:02:09.012Z,12.88
2018-10-06T00:03:09.147Z,12.96
2018-10-06T00:04:09.278Z,12.93
2018-10-06T00:05:09.418Z,12.99
2018-10-06T00:06:09.547Z,12.87
2018-10-06T00:07:09.686Z,12.96
2018-10-06T00:08:09.816Z,12.93
2018-10-06T00:09:09.951Z,12.84
2018-10-06T00:10:10.090Z,12.99
2018-10-06T00:11:10.230Z,12.90
2018-10-06T00:12:10.364Z,12.90
2018-10-06T00:13:10.496Z,12.87
2018-10-06T00:14:10.628Z,12.83
2018-10-06T00:15:11.591Z,12.84
2018-10-06T00:16:10.881Z,12.79
2018-10-06T00:17:11.020Z,12.73
2018-10-06T00:18:11.157Z,12.76
2018-10-06T00:19:11.299Z,12.77
2018-10-06T00:20:11.434Z,12.69
2018-10-06T00:21:11.569Z,12.72
2018-10-06T00:22:11.707Z,12.76
2018-10-06T00:23:11.839Z,12.73
2018-10-06T00:24:11.974Z,12.77
2018-10-06T00:25:12.105Z,12.77
2018-10-06T00:26:12.241Z,12.72
2018-10-06T00:27:12.377Z,12.77
2018-10-06T00:28:12.509Z,12.66
2018-10-06T00:29:12.641Z,12.72
2018-10-06T00:30:12.782Z,12.71
2018-10-06T00:31:12.921Z,12.66
2018-10-06T00:32:13.054Z,12.72
2018-10-06T00:33:13.201Z,12.72
2018-10-06T00:34:13.361Z,12.65
2018-10-06T00:35:13.546Z,12.66
2018-10-06T00:36:13.648Z,12.65
2018-10-06T00:37:13.806Z,12.73
2018-10-06T00:38:14.059Z,12.65
2018-10-06T00:39:14.086Z,12.61
2018-10-06T00:40:14.215Z,12.62
2018-10-06T00:41:14.362Z,12.55
2018-10-06T00:42:14.490Z,12.54
2018-10-06T00:43:15.114Z,12.55
2018-10-06T00:44:14.802Z,12.58
2018-10-06T00:45:14.940Z,12.51
2018-10-06T00:46:15.088Z,12.62
2018-10-06T00:47:15.724Z,12.61
2018-10-06T00:48:15.295Z,12.44
2018-10-06T00:49:15.571Z,12.53
2018-10-06T00:50:15.593Z,12.41
2018-10-06T00:51:16.575Z,12.44
2018-10-06T00:52:15.874Z,12.51
2018-10-06T00:53:16.002Z,12.40
2018-10-06T00:54:16.159Z,12.43
2018-10-06T00:55:16.280Z,12.38
2018-10-06T00:56:16.433Z,12.47
2018-10-06T00:57:16.577Z,12.50
2018-10-06T00:58:16.714Z,12.47
2018-10-06T00:59:16.851Z,12.36
2018-10-06T01:00:17.009Z,12.46
2018-10-06T01:01:17.137Z,12.43
2018-10-06T01:02:17.270Z,12.43
2018-10-06T01:03:17.455Z,12.40
2018-10-06T01:04:17.591Z,12.41
2018-10-06T01:05:17.728Z,12.25
2018-10-06T01:06:17.863Z,12.26
2018-10-06T01:07:17.983Z,12.26
2018-10-06T01:08:18.121Z,12.23
2018-10-06T01:09:18.265Z,12.22
2018-10-06T01:10:18.441Z,12.21
2018-10-06T01:11:18.551Z,12.21
2018-10-06T01:12:18.685Z,12.17
2018-10-06T01:13:18.850Z,12.18
2018-10-06T01:14:18.977Z,12.22
2018-10-06T01:15:19.114Z,12.18
2018-10-06T01:16:19.260Z,12.21
2018-10-06T01:17:19.400Z,12.22
2018-10-06T01:18:19.529Z,12.11
2018-10-06T01:19:19.667Z,12.22
2018-10-06T01:20:19.798Z,12.18
2018-10-06T01:21:19.959Z,12.08
2018-10-06T01:22:20.072Z,12.10
2018-10-06T01:23:20.210Z,12.14
2018-10-06T01:24:20.367Z,12.07
2018-10-06T01:25:20.503Z,12.08
2018-10-06T01:26:20.663Z,12.10
2018-10-06T01:27:20.783Z,12.17
2018-10-06T01:28:20.993Z,12.10
2018-10-06T01:29:20.982Z,12.14
2018-10-06T01:30:21.117Z,12.11
2018-10-06T01:31:21.248Z,12.10
2018-10-06T01:32:21.401Z,12.17
2018-10-06T01:33:21.537Z,12.11
2018-10-06T01:34:21.669Z,12.07
2018-10-06T01:35:21.804Z,12.08
2018-10-06T01:36:21.948Z,12.05
2018-10-06T01:37:22.076Z,12.13
2018-10-06T01:38:22.210Z,11.96
2018-10-06T01:39:22.345Z,11.95
2018-10-06T01:40:22.484Z,11.97
2018-10-06T01:41:22.615Z,12.00
2018-10-06T01:42:22.750Z,11.96
2018-10-06T01:43:22.885Z,12.00
2018-10-06T01:44:23.033Z,11.91
2018-10-06T01:45:23.165Z,11.96
2018-10-06T01:46:23.298Z,11.95
2018-10-06T01:47:23.433Z,11.93
2018-10-06T01:48:23.592Z,11.91
2018-10-06T01:49:23.731Z,11.85
2018-10-06T01:50:23.858Z,11.88
2018-10-06T01:51:23.989Z,11.91
2018-10-06T01:52:24.134Z,11.84
2018-10-06T01:53:24.264Z,11.85
2018-10-06T01:54:24.408Z,11.74
2018-10-06T01:55:24.549Z,11.79
2018-10-06T01:56:24.701Z,11.73
2018-10-06T01:57:24.905Z,11.82
2018-10-06T01:58:24.909Z,11.79
2018-10-06T01:59:25.051Z,11.71
2018-10-06T02:00:25.220Z,11.77
2018-10-06T02:01:25.346Z,11.71
2018-10-06T02:02:25.474Z,11.74
2018-10-06T02:03:25.627Z,11.61
2018-10-06T02:04:25.760Z,11.66
2018-10-06T02:05:25.890Z,11.67
2018-10-06T02:06:26.030Z,11.56
2018-10-06T02:07:26.237Z,11.52
2018-10-06T02:08:26.249Z,11.58
2018-10-06T02:09:26.387Z,11.62
2018-10-06T02:10:26.536Z,11.69
2018-10-06T02:11:26.665Z,11.58
2018-10-06T02:12:26.796Z,11.59
2018-10-06T02:13:26.951Z,11.66
2018-10-06T02:14:27.088Z,11.59
2018-10-06T02:15:27.232Z,11.55
2018-10-06T02:16:27.372Z,11.55
2018-10-06T02:17:27.537Z,11.58
2018-10-06T02:18:27.664Z,11.58
2018-10-06T02:19:27.801Z,11.58
2018-10-06T02:20:27.940Z,11.64
2018-10-06T02:21:28.071Z,11.58
2018-10-06T02:22:28.206Z,11.54
2018-10-06T02:23:28.339Z,11.56
2018-10-06T02:24:28.521Z,11.54
2018-10-06T02:25:28.626Z,11.46
2018-10-06T02:26:28.772Z,11.58
2018-10-06T02:27:28.900Z,11.51
2018-10-06T02:28:29.039Z,11.49
2018-10-06T02:29:29.179Z,11.54
2018-10-06T02:30:29.338Z,11.56
2018-10-06T02:31:29.465Z,11.49
2018-10-06T02:32:29.601Z,11.51
2018-10-06T02:33:29.759Z,11.46
2018-10-06T02:34:29.894Z,11.55
2018-10-06T02:35:30.028Z,11.46
2018-10-06T02:36:30.180Z,11.40
2018-10-06T02:37:30.306Z,11.45
2018-10-06T02:38:30.445Z,11.40
2018-10-06T02:39:30.573Z,11.51
2018-10-06T02:40:30.719Z,11.45
2018-10-06T02:41:30.851Z,11.52
2018-10-06T02:42:30.988Z,11.43
2018-10-06T02:43:31.147Z,11.41
2018-10-06T02:44:31.275Z,11.46
2018-10-06T02:45:31.410Z,11.48
2018-10-06T02:46:31.542Z,11.52
2018-10-06T02:47:31.686Z,11.52
2018-10-06T02:48:31.814Z,11.51
2018-10-06T02:49:31.952Z,11.45
2018-10-06T02:50:32.085Z,11.45
2018-10-06T02:51:32.244Z,11.45
2018-10-06T02:52:32.382Z,11.37
2018-10-06T02:53:32.515Z,11.28
2018-10-06T02:54:32.653Z,11.13
2018-10-06T02:55:32.872Z,11.08
2018-10-06T02:56:32.848Z,10.95
2018-10-06T02:57:32.995Z,10.76
2018-10-06T02:58:33.131Z,10.68
2018-10-06T02:59:33.300Z,10.67
2018-10-06T03:00:33.433Z,10.67
2018-10-06T03:01:33.569Z,10.62
2018-10-06T03:02:33.726Z,10.76
2018-10-06T03:03:33.852Z,10.78
2018-10-06T03:04:33.990Z,10.75
2018-10-06T03:05:34.132Z,10.83
2018-10-06T03:06:34.285Z,10.85
2018-10-06T03:07:34.413Z,10.91
2018-10-06T03:08:34.547Z,10.91
2018-10-06T03:09:34.697Z,10.95
2018-10-06T03:10:34.820Z,10.94
2018-10-06T03:11:34.953Z,11.00
2018-10-06T03:12:35.087Z,11.04
2018-10-06T03:13:35.243Z,11.01
2018-10-06T03:14:35.371Z,10.94
2018-10-06T03:15:35.507Z,11.00
2018-10-06T03:16:35.664Z,11.03
2018-10-06T03:17:35.795Z,10.95
2018-10-06T03:18:35.928Z,11.09
2018-10-06T03:19:36.061Z,11.05
2018-10-06T03:20:36.211Z,11.12
2018-10-06T03:21:36.346Z,11.11
2018-10-06T03:22:36.484Z,10.95
2018-10-06T03:23:36.619Z,10.97
2018-10-06T03:24:36.771Z,11.04
2018-10-06T03:25:36.908Z,11.04
2018-10-06T03:26:37.041Z,11.12
2018-10-06T03:27:37.200Z,11.15
2018-10-06T03:28:37.333Z,11.08
2018-10-06T03:29:37.467Z,11.04
2018-10-06T03:30:37.613Z,11.13
2018-10-06T03:31:37.758Z,11.11
2018-10-06T03:32:37.899Z,11.03
2018-10-06T03:33:38.020Z,11.11
2018-10-06T03:34:38.158Z,11.08
2018-10-06T03:35:38.329Z,11.04
2018-10-06T03:36:38.462Z,11.09
2018-10-06T03:37:38.594Z,11.18
2018-10-06T03:38:38.728Z,11.15
2018-10-06T03:39:38.886Z,11.11
2018-10-06T03:40:39.011Z,11.05
2018-10-06T03:41:39.150Z,11.05
2018-10-06T03:42:39.294Z,11.15
2018-10-06T03:43:39.421Z,11.16
2018-10-06T03:44:39.556Z,11.11
2018-10-06T03:45:39.697Z,11.00
2018-10-06T03:46:39.840Z,11.05
2018-10-06T03:47:39.960Z,11.09
2018-10-06T03:48:40.093Z,11.13
2018-10-06T03:49:40.228Z,11.12
2018-10-06T03:50:40.399Z,11.08
2018-10-06T03:51:40.524Z,11.12
2018-10-06T03:52:40.657Z,11.16
2018-10-06T03:53:40.791Z,11.15
2018-10-06T03:54:40.943Z,11.11
2018-10-06T03:55:41.075Z,10.98
2018-10-06T03:56:41.210Z,11.01
2018-10-06T03:57:41.342Z,10.94
2018-10-06T03:58:41.512Z,10.87
2018-10-06T03:59:41.620Z,10.87
2018-10-06T04:00:41.764Z,10.80
2018-10-06T04:01:41.896Z,10.79
2018-10-06T04:02:42.058Z,10.82
2018-10-06T04:03:42.189Z,10.85
2018-10-06T04:04:42.323Z,10.78
2018-10-06T04:05:42.452Z,10.80
2018-10-06T04:06:42.598Z,10.85
2018-10-06T04:07:42.723Z,10.94
2018-10-06T04:08:42.867Z,10.85
2018-10-06T04:09:43.004Z,10.93
2018-10-06T04:10:43.148Z,10.83
2018-10-06T04:11:43.270Z,10.85
2018-10-06T04:12:43.405Z,10.90
2018-10-06T04:13:43.541Z,10.76
2018-10-06T04:14:43.699Z,10.76
2018-10-06T04:15:43.827Z,10.82
2018-10-06T04:16:43.966Z,10.80
2018-10-06T04:17:44.105Z,10.78
2018-10-06T04:18:44.266Z,10.68
2018-10-06T04:19:44.396Z,10.67
2018-10-06T04:20:44.528Z,10.73
2018-10-06T04:21:44.665Z,10.70
2018-10-06T04:22:44.817Z,10.65
2018-10-06T04:23:44.944Z,10.61
2018-10-06T04:24:45.077Z,10.73
2018-10-06T04:25:45.213Z,10.61
2018-10-06T04:26:45.350Z,10.58
2018-10-06T04:27:45.480Z,10.62
2018-10-06T04:28:45.613Z,10.60
2018-10-06T04:29:45.742Z,10.52
2018-10-06T04:30:45.898Z,10.61
2018-10-06T04:31:46.029Z,10.65
2018-10-06T04:32:46.162Z,10.64
2018-10-06T04:33:46.328Z,10.61
2018-10-06T04:34:46.489Z,10.61
2018-10-06T04:35:46.621Z,10.60
2018-10-06T04:36:46.767Z,10.57
2018-10-06T04:37:46.916Z,10.60
2018-10-06T04:38:47.056Z,10.57
2018-10-06T04:39:47.186Z,10.55
2018-10-06T04:40:47.334Z,10.45
2018-10-06T04:41:47.463Z,10.49
2018-10-06T04:42:47.597Z,10.49
2018-10-06T04:43:47.731Z,10.62
2018-10-06T04:44:47.887Z,10.45
2018-10-06T04:45:48.016Z,10.65
2018-10-06T04:46:48.153Z,10.45
2018-10-06T04:47:48.320Z,10.46
2018-10-06T04:48:48.424Z,10.43
2018-10-06T04:49:48.559Z,10.49
2018-10-06T04:50:48.687Z,10.45
2018-10-06T04:51:48.841Z,10.48
2018-10-06T04:52:49.520Z,10.43
2018-10-06T04:53:49.090Z,10.48
2018-10-06T04:54:49.237Z,10.46
2018-10-06T04:55:49.365Z,10.48
2018-10-06T04:56:49.501Z,10.48
2018-10-06T04:57:49.634Z,10.46
2018-10-06T04:58:49.806Z,10.57
2018-10-06T04:59:49.923Z,10.49
2018-10-06T05:00:50.056Z,10.55
2018-10-06T05:01:50.192Z,10.41
2018-10-06T05:02:50.357Z,10.45
2018-10-06T05:03:50.490Z,10.46
2018-10-06T05:04:50.627Z,10.55
2018-10-06T05:05:50.777Z,10.55
2018-10-06T05:06:50.916Z,10.57
2018-10-06T05:07:51.050Z,10.58
2018-10-06T05:08:51.179Z,10.49
2018-10-06T05:09:51.354Z,10.54
2018-10-06T05:10:51.479Z,10.41
2018-10-06T05:11:51.612Z,10.52
2018-10-06T05:12:51.746Z,10.54
2018-10-06T05:13:51.886Z,10.49
2018-10-06T05:14:52.011Z,10.61
2018-10-06T05:15:52.148Z,10.54
2018-10-06T05:16:52.284Z,10.52
2018-10-06T05:17:52.437Z,10.42
2018-10-06T05:18:52.565Z,10.46
2018-10-06T05:19:52.708Z,10.48
2018-10-06T05:20:52.831Z,10.46
2018-10-06T05:21:52.999Z,10.54
2018-10-06T05:22:53.127Z,10.48
2018-10-06T05:23:53.270Z,10.55
2018-10-06T05:24:53.466Z,10.58
2018-10-06T05:25:54.296Z,10.49
2018-10-06T05:26:53.614Z,10.49
2018-10-06T05:27:53.743Z,10.48
2018-10-06T05:28:53.876Z,10.49
2018-10-06T05:29:54.026Z,10.57
2018-10-06T05:30:54.151Z,10.54
2018-10-06T05:31:54.289Z,10.48
2018-10-06T05:32:54.439Z,10.48
2018-10-06T05:33:54.581Z,10.46
2018-10-06T05:34:54.706Z,10.52
2018-10-06T05:35:54.969Z,10.42
2018-10-06T05:36:55.036Z,10.45
2018-10-06T05:37:55.171Z,10.48
2018-10-06T05:38:55.299Z,10.48
2018-10-06T05:39:55.489Z,10.36
2018-10-06T05:40:55.583Z,10.43
2018-10-06T05:41:55.721Z,10.43
2018-10-06T05:42:55.880Z,10.39
2018-10-06T05:43:56.011Z,10.41
2018-10-06T05:44:56.848Z,10.42
2018-10-06T05:47:28.890Z,10.43
2018-10-06T05:48:29.019Z,10.46
2018-10-06T05:49:29.227Z,10.38
2018-10-06T05:50:29.233Z,10.46
2018-10-06T05:51:29.391Z,10.43
2018-10-06T05:52:29.527Z,10.49
2018-10-06T05:53:29.661Z,10.49
2018-10-06T05:54:29.797Z,10.55
2018-10-06T05:55:29.957Z,10.48
2018-10-06T05:56:30.091Z,10.49
2018-10-06T05:57:30.226Z,10.41
2018-10-06T05:58:30.370Z,10.48
2018-10-06T05:59:30.504Z,10.48
2018-10-06T06:00:30.636Z,10.46
2018-10-06T06:01:30.771Z,10.43
2018-10-06T06:02:30.904Z,10.43
2018-10-06T06:03:32.864Z,10.46
2018-10-06T06:04:31.158Z,10.46
2018-10-06T06:05:31.290Z,10.46
2018-10-06T06:06:31.427Z,10.55
2018-10-06T06:07:31.556Z,10.52
2018-10-06T06:08:31.695Z,10.58
2018-10-06T06:09:31.824Z,10.55
2018-10-06T06:10:31.958Z,10.49
2018-10-06T06:11:32.094Z,10.57
2018-10-06T06:12:32.236Z,10.60
2018-10-06T06:13:32.376Z,10.48
2018-10-06T06:14:32.514Z,10.39
2018-10-06T06:15:32.666Z,10.39
2018-10-06T06:16:32.803Z,10.28
2018-10-06T06:17:32.944Z,10.24
2018-10-06T06:18:33.085Z,10.41
2018-10-06T06:19:33.214Z,10.30
2018-10-06T06:20:33.384Z,10.27
2018-10-06T06:21:33.617Z,10.18
2018-10-06T06:22:33.623Z,10.20
2018-10-06T06:23:33.764Z,10.27
2018-10-06T06:24:34.013Z,10.27
2018-10-06T06:25:34.060Z,10.30
2018-10-06T06:26:34.187Z,10.43
2018-10-06T06:27:34.317Z,10.41
2018-10-06T06:28:34.469Z,10.42
2018-10-06T06:29:34.590Z,10.48
2018-10-06T06:30:34.724Z,10.45
2018-10-06T06:31:34.871Z,10.57
2018-10-06T06:32:35.011Z,10.49
2018-10-06T06:33:35.140Z,10.62
2018-10-06T06:34:35.280Z,10.72
2018-10-06T06:35:35.414Z,10.72
2018-10-06T06:36:35.567Z,10.62
2018-10-06T06:37:35.704Z,10.67
2018-10-06T06:38:35.844Z,10.68
2018-10-06T06:39:35.977Z,10.83
2018-10-06T06:40:36.121Z,10.79
2018-10-06T06:41:36.249Z,10.91
2018-10-06T06:42:36.383Z,10.85
2018-10-06T06:43:36.537Z,10.86
2018-10-06T06:44:36.824Z,10.86
2018-10-06T06:45:36.790Z,10.97
2018-10-06T06:46:36.928Z,10.94
2018-10-06T06:47:37.080Z,11.03
2018-10-06T06:48:37.212Z,11.04
2018-10-06T06:49:37.387Z,11.00
2018-10-06T06:50:37.514Z,10.98
2018-10-06T06:51:37.637Z,11.08
2018-10-06T06:52:37.777Z,11.04
2018-10-06T06:53:37.907Z,11.03
2018-10-06T06:54:38.062Z,11.09
2018-10-06T06:55:38.191Z,11.03
2018-10-06T06:56:38.321Z,11.12
2018-10-06T06:57:38.455Z,11.03
2018-10-06T06:58:38.596Z,11.22
2018-10-06T06:59:38.730Z,11.16
2018-10-06T07:00:38.862Z,11.22
2018-10-06T07:01:39.010Z,11.19
2018-10-06T07:02:39.131Z,11.20
2018-10-06T07:03:39.270Z,11.22
2018-10-06T07:04:39.409Z,11.27
2018-10-06T07:05:39.602Z,11.28
2018-10-06T07:06:39.690Z,11.31
2018-10-06T07:07:39.834Z,11.16
2018-10-06T07:08:39.969Z,11.27
2018-10-06T07:09:40.138Z,11.28
2018-10-06T07:10:40.264Z,11.34
2018-10-06T07:11:40.397Z,11.30
2018-10-06T07:12:40.581Z,11.37
2018-10-06T07:13:40.701Z,11.36
2018-10-06T07:14:40.825Z,11.37
2018-10-06T07:15:40.971Z,11.34
2018-10-06T07:16:41.111Z,11.34
2018-10-06T07:17:41.240Z,11.40
2018-10-06T07:18:41.369Z,11.43
2018-10-06T07:19:41.505Z,11.46
2018-10-06T07:20:41.659Z,11.49
2018-10-06T07:21:41.790Z,11.52
2018-10-06T07:22:41.928Z,11.55
2018-10-06T07:23:42.063Z,11.52
2018-10-06T07:24:42.235Z,11.54
2018-10-06T07:25:42.360Z,11.52
2018-10-06T07:26:42.495Z,11.55
2018-10-06T07:27:42.645Z,11.55
2018-10-06T07:28:42.782Z,11.62
2018-10-06T07:29:42.908Z,11.62
2018-10-06T07:30:43.041Z,11.64
2018-10-06T07:31:43.274Z,11.67
2018-10-06T07:32:43.287Z,11.69
2018-10-06T07:33:43.427Z,11.71
2018-10-06T07:34:43.553Z,11.80
2018-10-06T07:35:43.721Z,11.77
2018-10-06T07:36:43.856Z,11.77
2018-10-06T07:37:43.990Z,11.79
2018-10-06T07:38:44.129Z,11.84
2018-10-06T07:39:44.294Z,11.88
2018-10-06T07:40:44.435Z,11.93
2018-10-06T07:41:44.580Z,11.89
2018-10-06T07:42:44.712Z,11.99
2018-10-06T07:43:44.869Z,12.07
2018-10-06T07:44:45.019Z,12.14
2018-10-06T07:45:45.146Z,12.04
2018-10-06T07:46:45.274Z,12.03
2018-10-06T07:47:45.429Z,12.11
2018-10-06T07:48:45.568Z,12.05
2018-10-06T07:49:45.696Z,12.07
2018-10-06T07:50:45.831Z,12.18
2018-10-06T07:51:45.999Z,12.18
2018-10-06T07:52:46.150Z,12.21
2018-10-06T07:53:46.287Z,12.22
2018-10-06T07:54:46.438Z,12.17
2018-10-06T07:55:46.570Z,12.26
2018-10-06T07:56:46.758Z,12.26
2018-10-06T07:57:46.853Z,12.32
2018-10-06T07:58:46.989Z,12.38
2018-10-06T07:59:47.120Z,12.32
2018-10-06T08:00:47.252Z,12.48
2018-10-06T08:01:47.440Z,12.47
2018-10-06T08:02:47.588Z,12.40
2018-10-06T08:03:47.678Z,12.41
2018-10-06T08:04:47.815Z,12.30
2018-10-06T08:05:47.972Z,12.38
2018-10-06T08:06:48.107Z,12.54
2018-10-06T08:07:48.239Z,12.54
2018-10-06T08:08:48.376Z,12.59
2018-10-06T08:09:48.541Z,12.51
2018-10-06T08:10:48.673Z,12.51
2018-10-06T08:11:48.807Z,12.62
2018-10-06T08:12:48.944Z,12.66
2018-10-06T08:13:49.133Z,12.65
2018-10-06T08:14:49.215Z,12.61
2018-10-06T08:15:49.365Z,12.62
2018-10-06T08:16:49.490Z,12.69
2018-10-06T08:17:49.641Z,12.72
2018-10-06T08:18:49.822Z,12.77
2018-10-06T08:19:49.954Z,12.72
2018-10-06T08:20:50.093Z,12.81
2018-10-06T08:21:50.312Z,12.65
2018-10-06T08:22:50.392Z,12.66
2018-10-06T08:23:50.527Z,12.68
2018-10-06T08:24:50.670Z,12.62
2018-10-06T08:25:50.798Z,12.61
2018-10-06T08:26:50.935Z,12.62
2018-10-06T08:27:51.076Z,12.68
2018-10-06T08:28:51.250Z,12.77
2018-10-06T08:29:51.380Z,12.77
2018-10-06T08:30:51.536Z,12.79
2018-10-06T08:31:51.655Z,12.76
2018-10-06T08:32:51.806Z,12.79
2018-10-06T08:33:51.941Z,12.91
2018-10-06T08:34:52.079Z,12.87
2018-10-06T08:35:52.202Z,12.86
2018-10-06T08:36:52.366Z,12.83
2018-10-06T08:37:52.493Z,12.96
2018-10-06T08:38:52.631Z,13.02
2018-10-06T08:39:52.770Z,13.11
2018-10-06T08:40:52.916Z,13.16
2018-10-06T08:41:53.044Z,13.19
2018-10-06T08:42:53.224Z,13.24
2018-10-06T08:43:53.326Z,13.30
2018-10-06T08:44:53.475Z,13.30
2018-10-06T08:45:53.604Z,13.36
2018-10-06T08:46:53.773Z,13.35
2018-10-06T08:47:53.887Z,13.38
2018-10-06T08:48:54.092Z,13.46
2018-10-06T08:49:54.182Z,13.43
2018-10-06T08:50:54.235Z,13.42
2018-10-06T08:51:54.367Z,13.53
2018-10-06T08:52:54.531Z,13.61
2018-10-06T08:53:54.649Z,13.55
2018-10-06T08:54:54.787Z,13.72
2018-10-06T08:55:55.011Z,13.71
2018-10-06T08:56:55.078Z,13.71
2018-10-06T08:57:55.210Z,13.67
2018-10-06T08:58:55.344Z,13.79
2018-10-06T08:59:55.562Z,13.82
2018-10-06T09:00:55.572Z,13.79
2018-10-06T09:01:55.711Z,13.91
2018-10-06T09:02:55.845Z,13.93
2018-10-06T09:03:55.978Z,13.98
2018-10-06T09:04:56.124Z,13.93
2018-10-06T09:05:56.261Z,14.15
2018-10-06T09:06:56.395Z,14.09
2018-10-06T09:07:56.527Z,14.16
2018-10-06T09:08:56.677Z,14.13
2018-10-06T09:09:56.818Z,14.21
2018-10-06T09:10:56.967Z,14.23
2018-10-06T09:11:57.090Z,14.31
2018-10-06T09:12:57.227Z,14.36
2018-10-06T09:13:57.367Z,14.37
2018-10-06T09:14:57.510Z,14.55
2018-10-06T09:15:57.647Z,14.58
2018-10-06T09:16:57.783Z,14.64
2018-10-06T09:17:58.016Z,14.56
2018-10-06T09:18:58.053Z,14.66
2018-10-06T09:19:58.193Z,14.73
2018-10-06T09:20:58.329Z,14.70
2018-10-06T09:21:58.465Z,14.78
2018-10-06T09:22:58.597Z,14.86
2018-10-06T09:23:58.757Z,14.90
2018-10-06T09:24:58.888Z,14.95
2018-10-06T09:25:59.035Z,14.96
2018-10-06T09:26:59.181Z,15.05
2018-10-06T09:27:59.334Z,15.07
2018-10-06T09:28:59.481Z,15.10
2018-10-06T09:29:59.663Z,15.12
2018-10-06T09:30:59.754Z,15.10
2018-10-06T09:32:00.803Z,15.12
2018-10-06T09:33:00.101Z,15.22
2018-10-06T09:34:00.239Z,15.30
2018-10-06T09:35:00.375Z,15.29
2018-10-06T09:36:01.302Z,15.32
2018-10-06T09:37:00.649Z,15.40
2018-10-06T09:38:00.787Z,15.45
2018-10-06T09:39:01.800Z,15.47
2018-10-06T09:40:01.097Z,15.47
2018-10-06T09:41:01.244Z,15.51
2018-10-06T09:42:01.465Z,15.65
2018-10-06T09:43:01.512Z,15.51
2018-10-06T09:44:01.681Z,15.65
2018-10-06T09:45:01.823Z,15.68
2018-10-06T09:46:02.803Z,15.77
2018-10-06T09:47:02.093Z,15.77
2018-10-06T09:48:02.264Z,15.84
2018-10-06T09:49:02.368Z,15.88
2018-10-06T09:50:02.509Z,15.99
2018-10-06T09:51:02.641Z,16.02
2018-10-06T09:52:02.780Z,16.10
2018-10-06T09:53:02.929Z,16.21
2018-10-06T09:54:03.060Z,16.25
2018-10-06T09:55:03.200Z,16.29
2018-10-06T09:56:03.339Z,16.18
2018-10-06T09:57:03.474Z,16.34
2018-10-06T09:58:03.624Z,16.44
2018-10-06T09:59:03.751Z,16.46
2018-10-06T10:00:03.908Z,16.55
2018-10-06T10:01:04.038Z,16.64
2018-10-06T10:02:04.175Z,16.74
2018-10-06T10:03:04.305Z,16.74
2018-10-06T10:04:04.452Z,16.80
2018-10-06T10:05:04.589Z,16.92
2018-10-06T10:06:04.724Z,16.88
2018-10-06T10:07:04.884Z,16.94
2018-10-06T10:08:04.998Z,16.98
2018-10-06T10:09:05.134Z,17.12
2018-10-06T10:10:05.306Z,17.14
2018-10-06T10:11:05.412Z,17.16
2018-10-06T10:12:05.555Z,17.24
2018-10-06T10:13:05.697Z,17.28
2018-10-06T10:14:05.833Z,17.19
2018-10-06T10:15:06.030Z,17.34
2018-10-06T10:16:06.109Z,17.32
2018-10-06T10:17:06.305Z,17.45
2018-10-06T10:18:06.476Z,17.49
2018-10-06T10:19:06.523Z,17.50
2018-10-06T10:20:06.662Z,17.50
2018-10-06T10:21:06.810Z,17.65
2018-10-06T10:22:07.105Z,17.68
2018-10-06T10:23:07.177Z,17.72
2018-10-06T10:24:07.217Z,17.76
2018-10-06T10:25:07.371Z,17.93
2018-10-06T10:26:07.514Z,17.86
2018-10-06T10:27:07.647Z,18.08
2018-10-06T10:28:07.799Z,18.13
2018-10-06T10:29:07.939Z,18.30
2018-10-06T10:30:08.077Z,18.38
2018-10-06T10:31:08.226Z,18.49
2018-10-06T10:32:08.367Z,18.56
2018-10-06T10:33:08.499Z,18.74
2018-10-06T10:34:08.632Z,18.76
2018-10-06T10:35:08.762Z,18.91
2018-10-06T10:36:08.903Z,19.01
2018-10-06T10:37:09.049Z,19.15
2018-10-06T10:38:09.189Z,19.26
2018-10-06T10:39:09.366Z,19.45
2018-10-06T10:40:09.471Z,19.68
2018-10-06T10:41:09.612Z,19.87
2018-10-06T10:42:09.756Z,19.87
2018-10-06T10:43:09.906Z,20.12
2018-10-06T10:44:10.089Z,20.19
2018-10-06T10:45:10.192Z,20.32
2018-10-06T10:46:10.326Z,20.33
2018-10-06T10:47:10.475Z,20.48
2018-10-06T10:48:10.647Z,20.50
2018-10-06T10:49:10.764Z,20.67
2018-10-06T10:50:10.901Z,20.80
2018-10-06T10:51:11.040Z,20.86
2018-10-06T10:52:11.177Z,21.13
2018-10-06T10:53:11.319Z,21.28
2018-10-06T10:54:11.461Z,21.37
2018-10-06T10:55:11.596Z,21.50
2018-10-06T10:56:11.734Z,21.73
2018-10-06T10:57:11.882Z,21.74
2018-10-06T10:58:12.013Z,21.82
2018-10-06T10:59:12.166Z,21.78
2018-10-06T11:00:12.358Z,21.85
2018-10-06T11:01:12.476Z,22.07
2018-10-06T11:02:12.589Z,21.98
2018-10-06T11:03:12.738Z,22.11
2018-10-06T11:04:12.876Z,22.06
2018-10-06T11:05:13.015Z,22.12
2018-10-06T11:06:13.162Z,22.12
2018-10-06T11:07:13.304Z,22.15
2018-10-06T11:08:13.447Z,22.13
2018-10-06T11:09:13.584Z,22.19
2018-10-06T11:10:13.731Z,22.15
2018-10-06T11:11:13.902Z,22.21
2018-10-06T11:12:14.021Z,22.19
2018-10-06T11:13:14.158Z,22.07
2018-10-06T11:14:14.299Z,22.09
2018-10-06T11:15:14.434Z,22.13
2018-10-06T11:16:14.570Z,22.09
2018-10-06T11:17:14.725Z,22.13
2018-10-06T11:18:14.857Z,22.18
2018-10-06T11:19:15.001Z,22.34
2018-10-06T11:20:15.141Z,22.38
2018-10-06T11:21:15.346Z,22.34
2018-10-06T11:22:15.361Z,22.46
2018-10-06T11:23:16.325Z,22.49
2018-10-06T11:24:15.587Z,22.49
2018-10-06T11:25:15.725Z,22.58
2018-10-06T11:26:15.866Z,22.70
2018-10-06T11:27:16.003Z,22.70
2018-10-06T11:28:16.148Z,22.71
2018-10-06T11:29:16.284Z,22.77
2018-10-06T11:30:16.461Z,22.91
2018-10-06T11:31:16.595Z,22.77
2018-10-06T11:32:16.734Z,22.99
2018-10-06T11:33:16.877Z,22.92
2018-10-06T11:34:17.059Z,23.14
2018-10-06T11:35:17.200Z,23.15
2018-10-06T11:36:17.347Z,23.33
2018-10-06T11:37:17.555Z,23.21
2018-10-06T11:38:17.695Z,23.29
2018-10-06T11:39:17.801Z,23.41
2018-10-06T11:40:17.937Z,23.37
2018-10-06T11:41:18.095Z,23.45
2018-10-06T11:42:18.243Z,23.54
2018-10-06T11:43:18.380Z,23.66
2018-10-06T11:44:18.521Z,23.89
2018-10-06T11:45:18.666Z,23.79
2018-10-06T11:46:18.836Z,23.89
2018-10-06T11:47:18.976Z,23.92
2018-10-06T11:48:19.121Z,24.08
2018-10-06T11:49:19.258Z,23.97
2018-10-06T11:50:19.455Z,23.98
2018-10-06T11:51:19.558Z,23.94
2018-10-06T11:52:19.692Z,24.13
2018-10-06T11:53:19.836Z,24.22
2018-10-06T11:54:19.984Z,24.23
2018-10-06T11:55:20.131Z,24.43
2018-10-06T11:56:20.273Z,24.40
2018-10-06T11:57:20.418Z,24.44
2018-10-06T11:58:20.570Z,24.45
2018-10-06T11:59:20.706Z,24.47
2018-10-06T12:00:21.046Z,24.23
2018-10-06T12:01:21.007Z,24.23
2018-10-06T12:02:21.151Z,24.04
2018-10-06T12:03:21.321Z,24.28
2018-10-06T12:04:21.488Z,24.34
2018-10-06T12:05:21.631Z,24.37
2018-10-06T12:06:21.773Z,24.65
2018-10-06T12:07:21.984Z,24.79
2018-10-06T12:08:22.082Z,24.99
2018-10-06T12:09:22.229Z,25.08
2018-10-06T12:10:22.372Z,25.01
2018-10-06T12:11:22.539Z,25.08
2018-10-06T12:12:22.683Z,25.08
2018-10-06T12:13:22.824Z,25.14
2018-10-06T12:14:28.807Z,25.43
2018-10-06T12:15:23.089Z,25.56
2018-10-06T12:16:23.981Z,25.73
2018-10-06T12:17:23.438Z,25.64
2018-10-06T12:18:23.614Z,25.58
2018-10-06T12:19:23.761Z,25.15
2018-10-06T12:20:23.943Z,25.00
2018-10-06T12:21:24.084Z,25.43
2018-10-06T12:22:24.231Z,25.71
2018-10-06T12:23:24.378Z,25.85
2018-10-06T12:24:24.521Z,26.27
2018-10-06T12:25:24.667Z,26.12
2018-10-06T12:26:24.811Z,26.26
2018-10-06T12:27:24.978Z,26.34
2018-10-06T12:28:25.129Z,26.49
2018-10-06T12:29:25.281Z,26.48
2018-10-06T12:30:25.442Z,26.39
2018-10-06T12:31:25.594Z,26.63
2018-10-06T12:32:25.738Z,26.41
2018-10-06T12:33:25.964Z,26.67
2018-10-06T12:34:25.993Z,26.71
2018-10-06T12:35:26.245Z,26.53
2018-10-06T12:36:26.291Z,26.70
2018-10-06T12:37:26.491Z,26.97
2018-10-06T12:38:26.650Z,26.88
2018-10-06T12:39:26.801Z,26.76
2018-10-06T12:40:26.951Z,26.58
2018-10-06T12:41:27.110Z,26.60
2018-10-06T12:42:27.321Z,26.56
2018-10-06T12:43:27.477Z,26.41
2018-10-06T12:44:27.624Z,26.63
2018-10-06T12:45:27.804Z,26.60
2018-10-06T12:46:27.962Z,26.64
2018-10-06T12:47:28.109Z,26.43
2018-10-06T12:48:28.258Z,26.43
2018-10-06T12:49:28.432Z,26.52
2018-10-06T12:50:28.580Z,26.53
2018-10-06T12:51:28.800Z,26.45
2018-10-06T12:52:28.884Z,26.42
2018-10-06T12:53:29.057Z,26.24
2018-10-06T12:54:29.198Z,26.15
2018-10-06T12:55:29.351Z,25.86